Wildcat, Kentucky
Current Conditions -  °F | °C
As of 7:53 PM on Monday 26 Jan 2015 (Local Time) from KLOZ Reporting Station
Overcast Overcast  
Wind Chill: 25°   Ceiling: 1500
Heat Index: 30°   Visibility: 10mi
Dew Point: 21°   Wind: 5mph
Humidity: 69%   Direction: 290°WNW
Pressure: 29.94"   Gusts: NA
Location:  37.1101°N, 83.7537°W
Report Text: KLOZ 270053Z AUTO 29004KT 10SM OVC015 M01/M06 A2994 RMK AO2 SLP147 T10111061
Loading
Personal Weather Stations






























Interactive Weather Map New forecast layout! Learn more

10-Day Weather Forecast

Advertisements
Track Severe Weather on mobile